ADDS METAR Data INFO
IDs: Format: Raw Decoded Include TAF

Data at: 2006 UTC 19 Oct 2017

KLUA 191955Z AUTO 22005KT 10SM CLR 25/03 A3016 RMK AO2
KLUA 191935Z AUTO 21005KT 10SM CLR 25/02 A3017 RMK AO2
KLUA 191915Z AUTO 00000KT 10SM CLR 24/03 A3017 RMK AO2
KLUA 191855Z AUTO 24005KT 10SM CLR 24/04 A3018 RMK AO2
KLUA 191835Z AUTO 21003KT 10SM CLR 24/04 A3019 RMK AO2
KLUA 191815Z AUTO 00000KT 10SM CLR 23/04 A3020 RMK AO2
KLUA 191755Z AUTO 22003KT 10SM CLR 22/05 A3021 RMK AO2
KLUA 191735Z AUTO 00000KT 10SM CLR 22/05 A3021 RMK AO2
KLUA 191715Z AUTO 26003KT 10SM CLR 22/05 A3023 RMK AO2
KLUA 191655Z AUTO 20004KT 10SM CLR 21/06 A3024 RMK AO2
KLUA 191635Z AUTO 00000KT 10SM CLR 20/06 A3025 RMK AO2
KLUA 191615Z AUTO 22004KT 10SM CLR 19/07 A3025 RMK AO2
KLUA 191555Z AUTO 24003KT 10SM CLR 18/06 A3026 RMK AO2
KLUA 191535Z AUTO 20004KT 10SM CLR 17/06 A3026 RMK AO2
KLUA 191515Z AUTO 16004KT 10SM CLR 17/07 A3027 RMK AO2
KLUA 191455Z AUTO 00000KT 10SM CLR 15/07 A3027 RMK AO2
KLUA 191435Z AUTO 18004KT 10SM CLR 15/07 A3028 RMK AO2
KLUA 191415Z AUTO 20005KT 10SM CLR 13/07 A3028 RMK AO2
KLUA 191355Z AUTO 00000KT 10SM CLR 12/07 A3028 RMK AO2
KLUA 191335Z AUTO 22004KT 10SM CLR 11/07 A3029 RMK AO2
KLUA 191315Z AUTO 19003KT 10SM CLR 09/06 A3028 RMK AO2
KLUA 191255Z AUTO 00000KT 10SM CLR 07/06 A3028 RMK AO2
KLUA 191235Z AUTO 00000KT 10SM CLR 05/05 A3028 RMK AO2
KLUA 191215Z AUTO 00000KT 10SM CLR 04/04 A3027 RMK AO2
KLUA 191155Z AUTO 00000KT 10SM CLR 03/03 A3027 RMK AO2
KLUA 191135Z AUTO 00000KT 10SM CLR 02/02 A3026 RMK AO2
KLUA 191115Z AUTO 00000KT 10SM CLR 03/03 A3026 RMK AO2
KLUA 191055Z AUTO 00000KT 10SM CLR 03/03 A3026 RMK AO2
KLUA 191035Z AUTO 00000KT 4SM BR CLR 03/03 A3026 RMK AO2
KLUA 191015Z AUTO 00000KT 10SM CLR 04/04 A3027 RMK AO2
KLUA 190955Z AUTO 00000KT 10SM CLR 03/03 A3027 RMK AO2
KLUA 190935Z AUTO 00000KT 10SM CLR 03/03 A3027 RMK AO2
KLUA 190915Z AUTO 16003KT 10SM CLR 03/03 A3027 RMK AO2
KLUA 190855Z AUTO 00000KT 10SM CLR 03/03 A3026 RMK AO2
KLUA 190835Z AUTO 00000KT 10SM CLR 04/04 A3026 RMK AO2
KLUA 190815Z AUTO 00000KT 10SM CLR 05/05 A3026 RMK AO2
KLUA 190755Z AUTO 00000KT 10SM CLR 05/05 A3026 RMK AO2
KLUA 190735Z AUTO 00000KT 10SM CLR 04/04 A3027 RMK AO2
KLUA 190715Z AUTO 00000KT 10SM CLR 05/05 A3027 RMK AO2
KLUA 190655Z AUTO 00000KT 10SM CLR 05/05 A3027 RMK AO2
KLUA 190635Z AUTO 00000KT 10SM CLR 05/05 A3028 RMK AO2
KLUA 190615Z AUTO 00000KT 10SM CLR 05/04 A3028 RMK AO2
KLUA 190555Z AUTO 00000KT 10SM CLR 05/05 A3028 RMK AO2
KLUA 190535Z AUTO 18003KT 10SM CLR 05/05 A3028 RMK AO2
KLUA 190515Z AUTO 00000KT 10SM CLR 06/05 A3029 RMK AO2
KLUA 190455Z AUTO 00000KT 10SM CLR 07/05 A3029 RMK AO2
KLUA 190435Z AUTO 00000KT 10SM CLR 06/05 A3030 RMK AO2
KLUA 190415Z AUTO 00000KT 10SM CLR 07/05 A3030 RMK AO2
KLUA 190355Z AUTO 00000KT 10SM CLR 07/05 A3030 RMK AO2
KLUA 190335Z AUTO 00000KT 10SM CLR 07/06 A3030 RMK AO2
KLUA 190315Z AUTO 00000KT 10SM CLR 08/06 A3030 RMK AO2
KLUA 190255Z AUTO 00000KT 10SM CLR 09/06 A3030 RMK AO2
KLUA 190235Z AUTO 00000KT 10SM CLR 08/05 A3030 RMK AO2
KLUA 190215Z AUTO 00000KT 10SM CLR 10/05 A3030 RMK AO2
KLUA 190155Z AUTO 00000KT 10SM CLR 10/06 A3030 RMK AO2
KLUA 190135Z AUTO 18003KT 10SM CLR 11/06 A3029 RMK AO2
KLUA 190115Z AUTO 18003KT 10SM CLR 11/06 A3029 RMK AO2
KLUA 190055Z AUTO 20004KT 10SM CLR 13/05 A3029 RMK AO2
KLUA 190035Z AUTO 19004KT 10SM CLR 13/05 A3029 RMK AO2
KLUA 190015Z AUTO 19005KT 10SM CLR 14/05 A3030 RMK AO2
KLUA 182355Z AUTO 20005KT 10SM CLR 15/05 A3030 RMK AO2
KLUA 182335Z AUTO 20006KT 10SM CLR 15/05 A3030 RMK AO2
KLUA 182315Z AUTO 20005KT 10SM CLR 15/05 A3029 RMK AO2
KLUA 182255Z AUTO 22005KT 10SM CLR 16/05 A3029 RMK AO2
KLUA 182235Z AUTO 21004KT 10SM CLR 17/04 A3029 RMK AO2
KLUA 182215Z AUTO 21005KT 10SM CLR 19/03 A3028 RMK AO2
KLUA 182155Z AUTO 21005KT 10SM CLR 20/03 A3028 RMK AO2
KLUA 182135Z AUTO 22005KT 10SM CLR 20/02 A3029 RMK AO2
KLUA 182115Z AUTO 23006KT 10SM CLR 21/03 A3029 RMK AO2
KLUA 182055Z AUTO 20007KT 10SM CLR 21/02 A3029 RMK AO2
KLUA 182035Z AUTO 19005KT 10SM CLR 21/02 A3029 RMK AO2
KLUA 182015Z AUTO 00000KT 10SM CLR 21/03 A3030 RMK AO2
KLUA 181955Z AUTO 19003KT 10SM CLR 21/04 A3030 RMK AO2
KLUA 181935Z AUTO 00000KT 10SM CLR 21/05 A3031 RMK AO2
KLUA 181915Z AUTO 21004KT 10SM CLR 21/05 A3031 RMK AO2
KLUA 181855Z AUTO 00000KT 10SM CLR 21/04 A3032 RMK AO2
KLUA 181835Z AUTO 00000KT 10SM CLR 20/05 A3033 RMK AO2
KLUA 181815Z AUTO 33003KT 10SM CLR 20/04 A3033 RMK AO2
KLUA 181755Z AUTO 21005KT 10SM CLR 20/04 A3034 RMK AO2
KLUA 181735Z AUTO 00000KT 10SM CLR 20/03 A3035 RMK AO2
KLUA 181715Z AUTO 22003KT 10SM CLR 20/03 A3036 RMK AO2
KLUA 181655Z AUTO 21004KT 10SM CLR 18/04 A3038 RMK AO2
KLUA 181635Z AUTO 18003KT 10SM CLR 18/04 A3039 RMK AO2
KLUA 181615Z AUTO 00000KT 10SM CLR 16/05 A3040 RMK AO2
KLUA 181555Z AUTO 00000KT 10SM CLR 16/06 A3040 RMK AO2
KLUA 181535Z AUTO 00000KT 10SM CLR 15/06 A3041 RMK AO2
KLUA 181515Z AUTO 22003KT 10SM CLR 14/06 A3041 RMK AO2
KLUA 181455Z AUTO 00000KT 10SM CLR 13/06 A3041 RMK AO2
KLUA 181435Z AUTO 00000KT 10SM CLR 11/06 A3041 RMK AO2
KLUA 181415Z AUTO 00000KT 10SM CLR 10/06 A3041 RMK AO2
KLUA 181355Z AUTO 00000KT 10SM CLR 08/05 A3041 RMK AO2
KLUA 181335Z AUTO 00000KT 10SM CLR 07/05 A3041 RMK AO2
KLUA 181315Z AUTO 00000KT 10SM CLR 06/05 A3041 RMK AO2
KLUA 181255Z AUTO 22003KT 10SM CLR 05/04 A3041 RMK AO2
KLUA 181235Z AUTO 00000KT 10SM CLR 03/03 A3040 RMK AO2
KLUA 181215Z AUTO 00000KT 10SM CLR 02/02 A3039 RMK AO2
KLUA 181155Z AUTO 19004KT 10SM CLR 02/02 A3039 RMK AO2
KLUA 181135Z AUTO 23003KT 10SM CLR 02/02 A3038 RMK AO2
KLUA 181115Z AUTO 00000KT 10SM CLR 02/02 A3038 RMK AO2
KLUA 181055Z AUTO 00000KT 10SM CLR 03/03 A3037 RMK AO2
KLUA 181035Z AUTO 00000KT 10SM CLR 02/02 A3037 RMK AO2
KLUA 181015Z AUTO 00000KT 10SM CLR 02/02 A3036 RMK AO2
KLUA 180955Z AUTO 00000KT 10SM CLR 03/03 A3036 RMK AO2
KLUA 180935Z AUTO 00000KT 10SM CLR 03/03 A3035 RMK AO2
KLUA 180915Z AUTO 00000KT 10SM CLR 02/02 A3034 RMK AO2
KLUA 180855Z AUTO 00000KT 10SM CLR 02/02 A3034 RMK AO2
KLUA 180835Z AUTO 00000KT 10SM CLR 03/03 A3034 RMK AO2
KLUA 180815Z AUTO 00000KT 10SM CLR 03/03 A3033 RMK AO2